Meredith, CO (81642)

1:43 AM MDT on July 24, 2016 (GMT -0600)
MesoWest | | Change Station

Elev 8700 ft 39.30 °N, 106.61 °W | Updated 20 hours ago

Partly Cloudy
Partly Cloudy
51 °F
Feels Like 51 °F
N
5
Wind Variable Wind from ESE
Gusts mph

Today
High -- | Low -- °F
--% Chance of Precip.
Yesterday
High -- | Low -- °F
Precip. -- in
Pressure 29.92 in
Visibility 10.0 miles
Clouds Clear
Dew Point 40 °F
Humidity 66%
Rainfall in
Snow Depth Not available.
6:00 AM 8:25 PM
Waning Gibbous, 78% visible
METAR KASE 240653Z AUTO 23004KT 10SM CLR 13/07 A3033 RMK AO2 LTG DSNT W SLP131 T01280067 402940094
Pressure 29.92 in
Visibility 10.0 miles
Clouds Clear
Dew Point 40 °F
Humidity 66%
Rainfall in
Snow Depth Not available.
6:00 AM 8:25 PM
Waning Gibbous, 78% visible
METAR KASE 240653Z AUTO 23004KT 10SM CLR 13/07 A3033 RMK AO2 LTG DSNT W SLP131 T01280067 402940094

10-Day Weather Forecast

Almanac

Astronomy

Jul. 24, 2016 Rise Set
Actual Time
Civil Twilight
Nautical Twilight
Astronomical Twilight
Moon
Length of Visible Light
Length of Day
Tomorrow will be .
, % of the Moon is Illuminated

Today's Extremes

State Highs State Lows

Community

WunderPhotos

Upload Photos

1,927,041 photos uploaded!

WunderBlog® & News

Nearby

Air Quality

  Air Quality AQ Index Pollutant
Not available.

Snow Depth

Station Depth Elevation

Earthquake Activity

City Distance Mag. Time & Date
Minimum magnitude displayed is 2.5.

Coastal Water Temperatures

Place Temperature

Stations

Nearby Weather Stations

Station Location Temp. Windchill Dew Point Humidity Wind Precip. Elev Updated Type
                   

Watches & Warnings

There are currently no watches in effect.